Time;durP1;ratioP1;P1;durP2;ratioP2;P2;SDS_P1;SDS_P2;PMS_P1;PMS_P2;Temp;Humidity;BMP_temperature;BMP_pressure;BME280_temperature;BME280_humidity;BME280_pressure;Samples;Min_cycle;Max_cycle;Signal;HPM_P1;HPM_P2
2023/12/10 00:03:33;;;;;;;15.57;8.70;;;;;;;8.11;100.00;99625.00;10350464;28;20042;-71
2023/12/10 00:08:34;;;;;;;33.75;7.80;;;;;;;8.08;100.00;99625.41;10368845;28;20046;-73
2023/12/10 00:13:34;;;;;;;7.43;2.25;;;;;;;8.02;100.00;99634.34;10352916;28;20045;-72
2023/12/10 00:18:34;;;;;;;0.50;0.50;;;;;;;7.97;100.00;99631.44;10333815;28;20081;-73
2023/12/10 00:23:35;;;;;;;0.50;0.50;;;;;;;7.97;100.00;99650.31;10332644;28;20035;-73
2023/12/10 00:28:35;;;;;;;0.50;0.50;;;;;;;8.03;100.00;99654.88;10333507;28;20041;-71
2023/12/10 00:33:36;;;;;;;1.25;1.25;;;;;;;8.00;100.00;99643.69;10339363;28;20034;-72
2023/12/10 00:38:38;;;;;;;0.50;0.50;;;;;;;7.97;100.00;99644.94;10342161;28;20464;-72
2023/12/10 00:43:41;;;;;;;1.05;1.05;;;;;;;7.97;100.00;99654.88;10341679;28;20062;-73
2023/12/10 00:48:43;;;;;;;0.40;0.40;;;;;;;8.00;100.00;99649.06;10329552;28;20104;-72
2023/12/10 00:53:43;;;;;;;0.80;0.80;;;;;;;8.05;100.00;99658.19;10340032;28;20045;-72
2023/12/10 00:58:44;;;;;;;18.38;8.32;;;;;;;8.12;100.00;99659.00;10338536;28;20073;-72
2023/12/10 01:03:44;;;;;;;1.13;1.13;;;;;;;8.18;100.00;99672.69;10338060;28;20065;-72
2023/12/10 01:08:44;;;;;;;13.40;3.15;;;;;;;8.27;100.00;99666.03;10337694;28;20095;-73
2023/12/10 01:13:45;;;;;;;1.73;1.73;;;;;;;8.34;100.00;99672.22;10338033;28;20066;-72
2023/12/10 01:18:47;;;;;;;1.02;1.00;;;;;;;8.41;100.00;99678.44;10339093;28;20069;-73
2023/12/10 01:23:50;;;;;;;0.40;0.40;;;;;;;8.49;100.00;99674.69;10336879;28;20088;-72
2023/12/10 01:28:51;;;;;;;0.50;0.50;;;;;;;8.55;100.00;99674.66;10337953;28;20026;-73
2023/12/10 01:33:51;;;;;;;4.50;3.28;;;;;;;8.74;100.00;99704.44;10337831;28;20041;-74
2023/12/10 01:38:52;;;;;;;5.25;4.78;;;;;;;8.79;100.00;99693.84;10337129;28;20038;-73
2023/12/10 01:43:53;;;;;;;0.88;0.88;;;;;;;8.74;100.00;99702.59;10336748;28;20062;-73
2023/12/10 01:48:55;;;;;;;34.42;7.50;;;;;;;8.73;100.00;99698.22;10337289;28;20058;-73
2023/12/10 01:53:55;;;;;;;27.17;9.05;;;;;;;8.85;100.00;99701.91;10336469;28;20045;-72
2023/12/10 01:58:56;;;;;;;14.82;6.00;;;;;;;8.80;100.00;99738.69;10336362;28;20054;-73
2023/12/10 02:03:56;;;;;;;30.83;6.95;;;;;;;8.86;100.00;99748.63;10335249;28;20034;-73
2023/12/10 02:08:57;;;;;;;29.00;8.50;;;;;;;8.89;100.00;99747.38;10337106;28;20395;-72
2023/12/10 02:13:58;;;;;;;32.78;6.70;;;;;;;8.80;100.00;99763.78;10319080;28;20038;-72
2023/12/10 02:18:59;;;;;;;41.88;9.40;;;;;;;8.79;100.00;99761.31;10337026;28;20117;-72
2023/12/10 02:24:06;;;;;;;27.17;7.80;;;;;;;8.65;100.00;99770.50;10336227;28;20118;-71
2023/12/10 02:29:06;;;;;;;19.85;8.27;;;;;;;8.50;100.00;99779.69;10334605;28;20042;-72
2023/12/10 02:34:06;;;;;;;15.05;7.82;;;;;;;8.50;100.00;99801.28;10335840;28;20442;-74
2023/12/10 02:39:07;;;;;;;31.55;7.25;;;;;;;8.52;100.00;99788.41;10335884;28;20420;-71
2023/12/10 02:44:07;;;;;;;40.67;10.93;;;;;;;8.58;100.00;99811.84;10335767;28;20068;-72
2023/12/10 02:49:08;;;;;;;16.30;7.38;;;;;;;8.56;100.00;99811.22;10334503;28;20461;-72
2023/12/10 02:54:08;;;;;;;17.48;6.78;;;;;;;8.64;100.00;99820.13;10334182;28;20034;-72
2023/12/10 02:59:09;;;;;;;40.90;8.40;;;;;;;8.72;100.00;99819.91;10333312;28;20501;-71
2023/12/10 03:04:09;;;;;;;31.55;7.57;;;;;;;8.59;100.00;99802.69;10333890;28;20043;-72
2023/12/10 03:09:10;;;;;;;38.75;9.77;;;;;;;8.66;100.00;99831.53;10334193;28;20434;-71
2023/12/10 03:14:10;;;;;;;23.38;7.80;;;;;;;8.68;100.00;99842.94;10333726;28;20034;-73
2023/12/10 03:19:10;;;;;;;19.70;6.22;;;;;;;8.83;100.00;99844.34;10332946;28;20089;-72
2023/12/10 03:24:11;;;;;;;32.47;7.60;;;;;;;8.94;100.00;99853.69;10332711;28;20089;-71
2023/12/10 03:29:11;;;;;;;29.13;8.25;;;;;;;9.05;100.00;99884.59;10333859;28;20045;-71
2023/12/10 03:34:12;;;;;;;13.52;5.88;;;;;;;9.10;100.00;99905.59;10333285;28;20410;-71
2023/12/10 03:39:12;;;;;;;15.70;6.78;;;;;;;9.11;100.00;99888.31;10332735;28;20053;-71
2023/12/10 03:44:13;;;;;;;29.33;6.88;;;;;;;9.21;100.00;99910.31;10332045;28;20113;-71
2023/12/10 03:49:13;;;;;;;16.63;8.13;;;;;;;9.18;100.00;99924.22;10315951;28;20129;-73
2023/12/10 03:54:13;;;;;;;33.67;8.80;;;;;;;9.25;100.00;99928.59;10333393;28;20070;-71
2023/12/10 03:59:14;;;;;;;15.05;6.43;;;;;;;9.20;100.00;99941.06;10333827;28;20116;-72
2023/12/10 04:04:14;;;;;;;25.63;7.97;;;;;;;9.23;100.00;99973.06;10333704;28;20109;-70
2023/12/10 04:09:15;;;;;;;13.27;6.38;;;;;;;9.29;100.00;99986.56;10340910;28;20061;-71
2023/12/10 04:14:15;;;;;;;26.17;7.75;;;;;;;9.32;100.00;99994.25;10340678;28;20089;-72
2023/12/10 04:19:15;;;;;;;24.38;8.80;;;;;;;9.27;100.00;100022.91;10340738;28;20124;-71
2023/12/10 04:24:16;;;;;;;24.27;7.97;;;;;;;9.29;100.00;100018.16;10340692;28;20129;-72
2023/12/10 04:29:17;;;;;;;22.88;6.65;;;;;;;9.33;100.00;100032.88;10322787;28;20078;-72
2023/12/10 04:34:17;;;;;;;27.27;7.03;;;;;;;9.34;100.00;100031.84;10340533;28;20078;-72
2023/12/10 04:39:19;;;;;;;34.83;8.25;;;;;;;9.31;100.00;100041.19;10324010;28;20057;-71
2023/12/10 04:44:19;;;;;;;23.98;7.43;;;;;;;9.27;100.00;100036.44;10340284;28;20073;-71
2023/12/10 04:49:20;;;;;;;26.90;7.55;;;;;;;9.24;100.00;100061.16;10340361;28;20154;-72
2023/12/10 04:54:20;;;;;;;20.58;6.65;;;;;;;9.22;100.00;100074.03;10337864;28;20065;-72
2023/12/10 04:59:20;;;;;;;31.33;7.13;;;;;;;9.21;100.00;100085.88;10322417;28;20088;-72
2023/12/10 05:04:21;;;;;;;17.17;5.20;;;;;;;9.17;100.00;100076.56;10339644;28;20074;-72
2023/12/10 05:09:21;;;;;;;28.42;7.35;;;;;;;9.10;100.00;100092.75;10338747;28;20434;-71
2023/12/10 05:14:22;;;;;;;24.33;8.27;;;;;;;9.13;100.00;100102.31;10340085;28;20053;-72
2023/12/10 05:19:22;;;;;;;29.92;7.90;;;;;;;9.12;100.00;100116.84;10337475;28;20038;-73
2023/12/10 05:24:23;;;;;;;24.40;7.47;;;;;;;9.08;100.00;100133.47;10338099;28;20128;-72
2023/12/10 05:29:23;;;;;;;18.90;7.45;;;;;;;9.10;100.00;100146.78;10338651;28;20124;-72
2023/12/10 05:34:23;;;;;;;20.25;6.13;;;;;;;9.07;100.00;100160.69;10336942;28;20161;-71
2023/12/10 05:39:24;;;;;;;28.63;7.55;;;;;;;9.05;100.00;100176.25;10337822;28;20073;-73
2023/12/10 05:44:25;;;;;;;24.98;6.38;;;;;;;9.08;100.00;100182.09;10338424;28;20062;-72
2023/12/10 05:49:25;;;;;;;18.55;7.63;;;;;;;9.05;100.00;100182.50;10337349;28;20217;-73
2023/12/10 05:54:26;;;;;;;28.85;7.28;;;;;;;9.10;100.00;100208.91;10339026;28;20117;-73
2023/12/10 05:59:27;;;;;;;21.27;9.57;;;;;;;9.10;100.00;100194.56;10339470;28;20125;-73
2023/12/10 06:04:28;;;;;;;19.27;7.65;;;;;;;9.13;100.00;100207.66;10371033;28;20054;-71
2023/12/10 06:09:28;;;;;;;28.88;6.60;;;;;;;9.10;100.00;100225.09;10354374;28;20047;-74
2023/12/10 06:14:29;;;;;;;35.20;7.40;;;;;;;9.07;100.00;100239.03;10341335;28;20447;-72
2023/12/10 06:19:29;;;;;;;31.45;6.50;;;;;;;9.08;100.00;100251.47;10338597;28;20034;-73
2023/12/10 06:24:29;;;;;;;51.58;9.40;;;;;;;9.11;100.00;100256.47;10335749;28;20453;-72
2023/12/10 06:29:30;;;;;;;31.15;9.23;;;;;;;9.05;100.00;100279.72;10334777;28;20046;-71
2023/12/10 06:34:30;;;;;;;37.35;8.75;;;;;;;9.10;100.00;100271.03;10333579;28;20057;-73
2023/12/10 06:39:31;;;;;;;24.67;5.22;;;;;;;9.07;100.00;100283.06;10333478;28;20070;-73
2023/12/10 06:44:32;;;;;;;18.38;6.28;;;;;;;9.06;100.00;100291.34;10335005;28;20041;-72
2023/12/10 06:49:32;;;;;;;15.95;5.68;;;;;;;9.11;100.00;100313.19;10334142;28;20137;-72
2023/12/10 06:54:33;;;;;;;29.85;7.80;;;;;;;9.08;100.00;100319.00;10333427;28;20046;-72
2023/12/10 06:59:33;;;;;;;25.42;6.55;;;;;;;9.13;100.00;100345.41;10333135;28;20490;-72
2023/12/10 07:04:34;;;;;;;38.50;9.18;;;;;;;9.10;100.00;100351.22;10334513;28;20066;-72
2023/12/10 07:09:34;;;;;;;40.92;6.55;;;;;;;9.13;100.00;100353.53;10332954;28;20038;-73
2023/12/10 07:14:34;;;;;;;25.90;6.45;;;;;;;9.08;100.00;100352.25;10334056;28;20049;-71
2023/12/10 07:19:35;;;;;;;29.25;6.25;;;;;;;9.04;100.00;100359.09;10333923;28;20119;-72
2023/12/10 07:24:37;;;;;;;30.17;7.38;;;;;;;9.06;100.00;100381.34;10332432;28;20046;-73
2023/12/10 07:29:37;;;;;;;23.67;7.03;;;;;;;9.01;100.00;100381.09;10333885;28;20122;-73
2023/12/10 07:34:38;;;;;;;23.42;6.82;;;;;;;9.08;100.00;100403.56;10331687;28;20469;-72
2023/12/10 07:39:39;;;;;;;16.42;7.32;;;;;;;9.00;100.00;100406.44;10331555;28;20073;-72
2023/12/10 07:44:39;;;;;;;28.60;7.57;;;;;;;9.07;100.00;100426.22;10332632;28;20030;-72
2023/12/10 07:49:39;;;;;;;35.20;9.32;;;;;;;9.10;100.00;100429.56;10333721;28;20085;-73
2023/12/10 07:54:40;;;;;;;21.52;7.70;;;;;;;9.08;100.00;100413.53;10332349;28;20049;-72
2023/12/10 07:59:40;;;;;;;25.00;8.52;;;;;;;9.09;100.00;100434.09;10332288;28;20076;-73
2023/12/10 08:04:41;;;;;;;23.80;7.00;;;;;;;9.14;100.00;100452.44;10333222;28;20070;-72
2023/12/10 08:09:41;;;;;;;27.77;7.28;;;;;;;9.20;100.00;100444.34;10332674;28;20463;-73
2023/12/10 08:14:42;;;;;;;32.95;9.00;;;;;;;9.16;100.00;100453.91;10314875;28;20112;-73
2023/12/10 08:19:42;;;;;;;21.23;7.57;;;;;;;9.22;100.00;100452.25;10331376;28;20196;-73
2023/12/10 08:24:43;;;;;;;10.52;4.85;;;;;;;9.25;100.00;100470.75;10332815;28;20121;-71
2023/12/10 08:29:43;;;;;;;21.05;6.53;;;;;;;9.28;100.00;100475.78;10331675;28;20085;-73
2023/12/10 08:34:43;;;;;;;32.22;6.70;;;;;;;9.29;100.00;100475.59;10331389;28;20054;-73
2023/12/10 08:39:44;;;;;;;22.20;6.32;;;;;;;9.15;100.00;100470.28;10330857;28;20158;-73
2023/12/10 08:44:45;;;;;;;11.90;6.65;;;;;;;8.94;100.00;100476.63;10314722;28;20437;-73
2023/12/10 08:49:45;;;;;;;23.25;7.43;;;;;;;8.83;100.00;100481.50;10331953;28;20105;-71
2023/12/10 08:54:46;;;;;;;27.35;6.43;;;;;;;8.72;100.00;100500.13;10338255;28;20034;-73
2023/12/10 08:59:46;;;;;;;21.92;8.50;;;;;;;8.68;100.00;100496.97;10338211;28;20120;-71
2023/12/10 09:04:47;;;;;;;19.38;7.13;;;;;;;8.82;100.00;100527.63;10339440;28;20157;-72
2023/12/10 09:09:47;;;;;;;58.65;8.73;;;;;;;9.89;100.00;100507.44;10340246;28;20085;-72
2023/12/10 09:14:48;;;;;;;29.88;6.70;;;;;;;9.82;100.00;100520.94;10337488;28;20030;-73
2023/12/10 09:19:48;;;;;;;17.83;6.80;;;;;;;9.62;100.00;100520.03;10338281;28;20129;-73
2023/12/10 09:24:49;;;;;;;24.30;7.53;;;;;;;10.12;100.00;100507.13;10337627;28;20089;-72
2023/12/10 09:29:49;;;;;;;43.28;5.18;;;;;;;10.90;100.00;100520.97;10336550;28;20533;-72
2023/12/10 09:34:50;;;;;;;20.73;6.50;;;;;;;11.34;100.00;100533.03;10337794;28;20070;-70
2023/12/10 09:39:50;;;;;;;32.38;6.40;;;;;;;10.83;100.00;100537.22;10338759;28;20035;-70
2023/12/10 09:44:51;;;;;;;26.67;7.32;;;;;;;10.43;100.00;100563.41;10336999;28;20069;-71
2023/12/10 09:49:54;;;;;;;18.02;5.25;;;;;;;10.27;100.00;100561.91;10336403;28;20462;-71
2023/12/10 09:54:54;;;;;;;18.55;4.20;;;;;;;10.15;100.00;100548.13;10304035;28;20092;-71
2023/12/10 09:59:55;;;;;;;21.98;6.50;;;;;;;10.25;100.00;100551.28;10335609;28;20074;-72
2023/12/10 10:04:55;;;;;;;10.57;3.95;;;;;;;10.32;100.00;100551.31;10335575;28;20193;-70
2023/12/10 10:09:56;;;;;;;25.23;6.93;;;;;;;10.16;100.00;100551.66;10338397;28;20046;-70
2023/12/10 10:14:57;;;;;;;21.48;6.32;;;;;;;9.87;100.00;100553.63;10318331;28;20083;-71
2023/12/10 10:19:57;;;;;;;15.32;4.97;;;;;;;10.10;100.00;100558.72;10334760;28;20023;-71
2023/12/10 10:24:58;;;;;;;18.20;5.13;;;;;;;10.16;100.00;100544.38;10337173;28;20034;-71
2023/12/10 10:29:58;;;;;;;15.18;4.40;;;;;;;10.69;100.00;100527.44;10335094;28;20030;-72
2023/12/10 10:35:03;;;;;;;20.55;5.68;;;;;;;11.14;100.00;100525.75;10317701;28;20035;-74
2023/12/10 10:40:05;;;;;;;16.10;4.57;;;;;;;11.84;100.00;100517.88;10335211;28;20370;-73
2023/12/10 10:45:06;;;;;;;13.07;5.50;;;;;;;12.42;100.00;100516.94;10335436;28;20042;-70
2023/12/10 10:50:07;;;;;;;11.57;4.07;;;;;;;12.57;100.00;100506.59;10334359;28;20069;-70
2023/12/10 10:55:08;;;;;;;21.05;5.55;;;;;;;11.53;100.00;100510.44;10317327;28;20097;-71
2023/12/10 11:00:17;;;;;;;22.95;6.05;;;;;;;11.07;100.00;100487.00;10334049;28;20034;-71
2023/12/10 11:05:33;;;;;;;17.45;3.60;;;;;;;10.56;100.00;100489.50;10334229;28;20042;-70
2023/12/10 11:10:34;;;;;;;12.90;4.40;;;;;;;10.34;100.00;100478.03;10331896;28;20041;-70
2023/12/10 11:15:35;;;;;;;15.55;4.57;;;;;;;10.32;100.00;100478.25;10332764;28;20035;-72
2023/12/10 11:20:47;;;;;;;23.52;5.50;;;;;;;10.32;100.00;100480.94;10332816;28;20037;-71
2023/12/10 11:25:49;;;;;;;5.10;3.83;;;;;;;10.23;100.00;100485.69;10332664;28;20040;-71
2023/12/10 11:30:49;;;;;;;13.98;3.63;;;;;;;10.02;100.00;100485.88;10333151;28;20034;-70
2023/12/10 11:35:50;;;;;;;18.13;5.13;;;;;;;10.14;100.00;100489.63;10332761;28;20038;-72
2023/12/10 11:40:52;;;;;;;13.57;5.07;;;;;;;10.33;100.00;100479.06;10333597;28;20102;-72
2023/12/10 11:45:53;;;;;;;14.18;4.63;;;;;;;10.57;100.00;100469.53;10333734;28;20065;-73
2023/12/10 11:50:55;;;;;;;6.72;4.75;;;;;;;10.76;100.00;100470.56;10348794;28;20062;-74
2023/12/10 11:55:55;;;;;;;16.20;4.90;;;;;;;10.90;100.00;100478.47;10340516;28;20030;-73
2023/12/10 12:00:59;;;;;;;24.13;4.57;;;;;;;11.03;100.00;100468.66;10332338;28;20128;-70
2023/12/10 12:06:00;;;;;;;24.13;6.07;;;;;;;10.97;100.00;100450.53;10333432;28;20041;-73
2023/12/10 12:11:00;;;;;;;22.60;3.70;;;;;;;10.75;100.00;100464.28;10332481;28;20034;-72
2023/12/10 12:16:00;;;;;;;15.57;5.95;;;;;;;10.57;100.00;100445.16;10331783;28;20375;-72
2023/12/10 12:21:01;;;;;;;20.38;6.68;;;;;;;10.45;100.00;100439.53;10331956;28;20046;-71
2023/12/10 12:26:02;;;;;;;15.77;5.05;;;;;;;10.45;100.00;100443.06;10333429;28;20069;-71
2023/12/10 12:31:02;;;;;;;20.63;5.93;;;;;;;10.30;100.00;100437.00;10339042;28;20034;-74
2023/12/10 12:36:03;;;;;;;14.35;5.72;;;;;;;10.28;100.00;100419.34;10339314;28;20478;-72
2023/12/10 12:41:04;;;;;;;25.67;7.50;;;;;;;10.36;100.00;100428.06;10338428;28;20035;-73
2023/12/10 12:46:04;;;;;;;28.67;7.65;;;;;;;10.44;100.00;100402.69;10338810;28;20124;-71
2023/12/10 12:51:05;;;;;;;40.15;8.90;;;;;;;10.43;100.00;100419.94;10338010;28;20061;-73
2023/12/10 12:56:06;;;;;;;23.60;7.25;;;;;;;10.50;100.00;100399.16;10340586;28;20441;-71
2023/12/10 13:01:06;;;;;;;26.88;10.25;;;;;;;10.61;100.00;100390.38;10339764;28;20042;-72
2023/12/10 13:06:07;;;;;;;35.88;8.85;;;;;;;10.55;100.00;100393.09;10340061;28;20218;-70
2023/12/10 13:11:07;;;;;;;30.17;8.40;;;;;;;10.43;100.00;100393.75;10340180;28;20046;-70
2023/12/10 13:16:08;;;;;;;26.55;10.60;;;;;;;10.50;100.00;100390.16;10338262;28;20081;-71
2023/12/10 13:21:09;;;;;;;30.45;8.57;;;;;;;10.14;100.00;100365.16;10340343;28;20050;-70
2023/12/10 13:26:10;;;;;;;34.60;9.13;;;;;;;10.14;100.00;100370.56;10337118;28;20068;-69
2023/12/10 13:31:11;;;;;;;39.88;10.38;;;;;;;10.07;100.00;100342.69;10338805;28;20047;-70
2023/12/10 13:36:12;;;;;;;27.52;8.80;;;;;;;10.00;100.00;100329.16;10338698;28;20065;-70
2023/12/10 13:41:12;;;;;;;27.40;9.10;;;;;;;10.05;100.00;100322.28;10335319;28;20073;-71
2023/12/10 13:46:13;;;;;;;53.95;11.23;;;;;;;10.14;100.00;100321.03;10338029;28;20038;-73
2023/12/10 13:51:13;;;;;;;33.17;8.77;;;;;;;10.23;100.00;100290.03;10335977;28;20145;-70
2023/12/10 13:56:14;;;;;;;34.25;9.55;;;;;;;10.12;100.00;100260.91;10336394;28;20450;-72
2023/12/10 14:01:15;;;;;;;29.13;7.57;;;;;;;10.24;100.00;100241.13;10335136;28;20026;-69
2023/12/10 14:06:15;;;;;;;36.50;9.70;;;;;;;10.19;100.00;100253.63;10335073;28;20037;-72
2023/12/10 14:11:16;;;;;;;30.45;8.05;;;;;;;10.20;100.00;100244.44;10335848;28;20121;-71
2023/12/10 14:16:16;;;;;;;29.45;8.95;;;;;;;10.23;100.00;100244.03;10334635;28;20089;-73
2023/12/10 14:21:17;;;;;;;34.33;10.52;;;;;;;10.29;100.00;100247.81;10335063;28;20069;-70
2023/12/10 14:26:17;;;;;;;57.20;9.05;;;;;;;10.27;100.00;100245.28;10334934;28;20084;-72
2023/12/10 14:31:18;;;;;;;31.48;8.40;;;;;;;10.27;100.00;100215.53;10336407;28;20046;-69
2023/12/10 14:36:18;;;;;;;27.42;9.02;;;;;;;10.10;100.00;100219.72;10333351;28;20443;-71
2023/12/10 14:41:19;;;;;;;21.15;7.88;;;;;;;9.95;100.00;100191.00;10337102;28;20096;-70
2023/12/10 14:46:19;;;;;;;28.70;7.90;;;;;;;9.90;100.00;100166.50;10334960;28;20065;-73
2023/12/10 14:51:22;;;;;;;21.20;6.65;;;;;;;9.75;100.00;100152.38;10334757;28;20062;-71
2023/12/10 14:56:22;;;;;;;19.40;6.88;;;;;;;9.59;100.00;100114.97;10335081;28;20130;-70
2023/12/10 15:01:22;;;;;;;23.80;7.55;;;;;;;9.52;100.00;100123.91;10334801;28;20117;-70
2023/12/10 15:06:23;;;;;;;31.00;7.03;;;;;;;9.61;100.00;100140.75;10332770;28;20046;-71
2023/12/10 15:11:23;;;;;;;17.15;8.00;;;;;;;9.62;100.00;100122.66;10333497;28;20069;-70
2023/12/10 15:16:24;;;;;;;19.75;7.50;;;;;;;9.62;100.00;100091.03;10333726;28;20094;-70
2023/12/10 15:21:25;;;;;;;36.05;7.97;;;;;;;9.40;100.00;100076.94;10333281;28;20073;-69
2023/12/10 15:26:25;;;;;;;27.27;5.50;;;;;;;9.03;100.00;100046.00;10333252;28;20479;-70
2023/12/10 15:31:26;;;;;;;11.10;4.63;;;;;;;8.85;100.00;100052.84;10333981;28;20070;-69
2023/12/10 15:36:26;;;;;;;0.73;0.73;;;;;;;8.65;100.00;100051.16;10331665;28;20065;-68
2023/12/10 15:41:27;;;;;;;0.73;0.73;;;;;;;8.51;100.00;100021.47;10332186;28;20088;-69
2023/12/10 15:46:27;;;;;;;11.80;2.50;;;;;;;8.40;100.00;100016.69;10333295;28;20458;-69
2023/12/10 15:51:28;;;;;;;0.50;0.50;;;;;;;8.35;100.00;100014.56;10331880;28;20177;-69
2023/12/10 15:56:28;;;;;;;1.45;1.30;;;;;;;8.40;100.00;99995.13;10331194;28;20062;-70
2023/12/10 16:01:28;;;;;;;0.38;0.38;;;;;;;8.24;100.00;99982.81;10331678;28;20509;-70
2023/12/10 16:06:29;;;;;;;0.45;0.45;;;;;;;8.20;100.00;99978.88;10331490;28;20158;-68
2023/12/10 16:11:32;;;;;;;3.20;2.97;;;;;;;8.28;100.00;99953.56;10331788;28;20463;-67
2023/12/10 16:16:32;;;;;;;0.50;0.50;;;;;;;8.23;100.00;99907.50;10331069;28;20462;-69
2023/12/10 16:21:33;;;;;;;6.57;1.58;;;;;;;7.98;100.00;99877.63;10331820;28;20046;-70
2023/12/10 16:26:34;;;;;;;8.00;0.85;;;;;;;7.94;100.00;99885.25;10314746;28;20478;-68
2023/12/10 16:31:34;;;;;;;0.40;0.40;;;;;;;7.93;100.00;99845.88;10331171;28;20046;-67
2023/12/10 16:36:35;;;;;;;0.50;0.50;;;;;;;7.88;100.00;99816.00;10333213;28;20065;-68
2023/12/10 16:41:35;;;;;;;0.40;0.40;;;;;;;7.80;100.00;99794.66;10330105;28;20469;-72
2023/12/10 16:46:36;;;;;;;0.52;0.52;;;;;;;7.75;100.00;99779.09;10332401;28;20034;-71
2023/12/10 16:51:37;;;;;;;0.40;0.40;;;;;;;7.71;100.00;99774.34;10315007;28;20051;-70
2023/12/10 16:56:37;;;;;;;1.15;1.15;;;;;;;7.68;100.00;99752.16;10333631;28;20061;-71
2023/12/10 17:01:38;;;;;;;0.82;0.82;;;;;;;7.67;100.00;99730.81;10332822;28;20054;-68
2023/12/10 17:06:39;;;;;;;0.40;0.40;;;;;;;7.64;100.00;99728.53;10331888;28;20047;-69
2023/12/10 17:11:39;;;;;;;1.35;0.95;;;;;;;7.69;100.00;99721.50;10332488;28;20038;-69
2023/12/10 17:16:40;;;;;;;0.57;0.57;;;;;;;7.76;100.00;99704.50;10339138;28;20422;-68
2023/12/10 17:21:40;;;;;;;0.38;0.38;;;;;;;7.81;100.00;99696.59;10338656;28;20496;-71
2023/12/10 17:26:41;;;;;;;0.60;0.60;;;;;;;7.87;100.00;99676.88;10341335;28;20136;-69
2023/12/10 17:31:41;;;;;;;0.40;0.40;;;;;;;7.93;100.00;99665.25;10356161;28;20038;-69
2023/12/10 17:36:41;;;;;;;1.17;1.08;;;;;;;7.92;100.00;99642.06;10347732;28;20038;-69
2023/12/10 17:41:42;;;;;;;1.60;1.60;;;;;;;7.95;100.00;99636.25;10340599;28;20042;-70
2023/12/10 17:46:42;;;;;;;0.50;0.50;;;;;;;8.00;100.00;99635.59;10339208;28;20161;-71
2023/12/10 17:51:43;;;;;;;0.40;0.40;;;;;;;8.04;100.00;99651.16;10337380;28;20058;-70
2023/12/10 17:56:43;;;;;;;0.52;0.52;;;;;;;8.21;100.00;99626.41;10337561;28;20060;-69
2023/12/10 18:01:44;;;;;;;1.02;1.02;;;;;;;8.33;100.00;99612.03;10335685;28;20046;-70
2023/12/10 18:06:45;;;;;;;1.08;1.05;;;;;;;8.46;100.00;99635.47;10319154;28;20042;-70
2023/12/10 18:11:46;;;;;;;0.50;0.50;;;;;;;8.50;100.00;99628.59;10334844;28;20094;-71
2023/12/10 18:16:46;;;;;;;0.45;0.45;;;;;;;8.63;100.00;99618.78;10336799;28;20030;-71
2023/12/10 18:21:47;;;;;;;0.50;0.50;;;;;;;8.78;100.00;99613.91;10338873;28;20042;-69
2023/12/10 18:26:47;;;;;;;0.40;0.40;;;;;;;8.98;100.00;99617.31;10334653;28;20088;-71
2023/12/10 18:31:48;;;;;;;2.97;0.65;;;;;;;9.14;100.00;99624.03;10335731;28;20057;-68
2023/12/10 18:36:48;;;;;;;0.30;0.30;;;;;;;9.26;100.00;99624.16;10335778;28;20031;-69
2023/12/10 18:41:48;;;;;;;0.50;0.50;;;;;;;9.42;100.00;99620.91;10350491;28;20125;-70
2023/12/10 18:46:49;;;;;;;0.60;0.60;;;;;;;9.60;100.00;99612.00;10336263;28;20069;-69
2023/12/10 18:51:49;;;;;;;0.63;0.63;;;;;;;9.75;100.00;99611.66;10335187;28;20433;-70
2023/12/10 18:56:50;;;;;;;0.30;0.30;;;;;;;9.90;100.00;99616.72;10334717;28;20110;-70
2023/12/10 19:01:50;;;;;;;0.50;0.50;;;;;;;10.07;100.00;99614.22;10333407;28;20120;-71
2023/12/10 19:06:51;;;;;;;0.57;0.57;;;;;;;10.13;100.00;99626.84;10318495;28;20034;-70
2023/12/10 19:11:51;;;;;;;0.30;0.30;;;;;;;10.06;100.00;99628.81;10333454;28;20101;-71
2023/12/10 19:16:52;;;;;;;0.30;0.30;;;;;;;9.90;100.00;99638.34;10333386;28;20113;-70
2023/12/10 19:21:52;;;;;;;0.47;0.47;;;;;;;9.72;100.00;99637.25;10333963;28;20091;-70
2023/12/10 19:26:52;;;;;;;0.43;0.43;;;;;;;9.63;100.00;99637.75;10334191;28;20038;-70
2023/12/10 19:31:53;;;;;;;0.60;0.60;;;;;;;9.54;100.00;99648.88;10333350;28;20038;-69
2023/12/10 19:36:53;;;;;;;3.38;3.22;;;;;;;9.45;100.00;99666.41;10334514;28;20366;-70
2023/12/10 19:41:54;;;;;;;6.18;4.82;;;;;;;9.44;100.00;99659.31;10334171;28;20061;-71
2023/12/10 19:46:54;;;;;;;1.77;1.67;;;;;;;9.37;100.00;99674.75;10333605;28;20113;-70
2023/12/10 19:51:54;;;;;;;1.15;1.15;;;;;;;9.32;100.00;99677.31;10315690;28;20545;-72
2023/12/10 19:56:55;;;;;;;0.50;0.50;;;;;;;9.22;100.00;99683.22;10331368;28;20498;-71
2023/12/10 20:01:55;;;;;;;0.65;0.65;;;;;;;9.16;100.00;99694.88;10331501;28;20066;-71
2023/12/10 20:06:56;;;;;;;1.77;1.67;;;;;;;9.12;100.00;99706.31;10332645;28;20030;-70
2023/12/10 20:11:56;;;;;;;1.45;1.45;;;;;;;9.08;100.00;99714.84;10330726;28;20505;-71
2023/12/10 20:16:57;;;;;;;1.60;1.58;;;;;;;9.06;100.00;99722.38;10330720;28;20061;-69
2023/12/10 20:21:57;;;;;;;2.97;2.78;;;;;;;9.05;100.00;99734.19;10331183;28;20533;-70
2023/12/10 20:26:58;;;;;;;2.65;2.30;;;;;;;8.99;100.00;99740.44;10332516;28;20061;-70
2023/12/10 20:31:59;;;;;;;0.30;0.30;;;;;;;8.94;100.00;99743.00;10333057;28;20035;-70
2023/12/10 20:37:00;;;;;;;0.90;0.90;;;;;;;8.97;100.00;99747.13;10332071;28;20066;-70
2023/12/10 20:42:00;;;;;;;5.88;1.92;;;;;;;8.98;100.00;99749.59;10331187;28;20521;-70
2023/12/10 20:47:01;;;;;;;41.50;7.10;;;;;;;8.96;100.00;99758.97;10330678;28;20054;-71
2023/12/10 20:52:01;;;;;;;26.42;8.52;;;;;;;8.95;100.00;99778.91;10337815;28;20442;-69
2023/12/10 20:57:02;;;;;;;35.75;7.70;;;;;;;8.90;100.00;99776.84;10338254;28;20477;-71
2023/12/10 21:02:02;;;;;;;35.90;9.00;;;;;;;8.79;100.00;99777.53;10337728;28;20030;-70
2023/12/10 21:07:03;;;;;;;48.35;11.48;;;;;;;8.78;100.00;99779.41;10321347;28;20026;-71
2023/12/10 21:12:04;;;;;;;30.88;8.82;;;;;;;8.73;100.00;99781.06;10338578;28;20147;-70
2023/12/10 21:17:05;;;;;;;30.48;7.63;;;;;;;8.74;100.00;99769.22;10337443;28;20121;-70
2023/12/10 21:22:06;;;;;;;19.63;6.15;;;;;;;8.75;100.00;99776.28;10339660;28;20577;-69
2023/12/10 21:27:06;;;;;;;22.95;8.55;;;;;;;8.75;100.00;99777.13;10338148;28;20069;-69
2023/12/10 21:32:07;;;;;;;33.88;7.43;;;;;;;8.80;100.00;99779.16;10338031;28;20092;-71
2023/12/10 21:37:07;;;;;;;27.40;8.18;;;;;;;8.82;100.00;99787.88;10338095;28;20105;-72
2023/12/10 21:42:08;;;;;;;27.55;7.75;;;;;;;8.87;100.00;99787.25;10320680;28;20038;-71
2023/12/10 21:47:08;;;;;;;35.75;9.05;;;;;;;8.85;100.00;99779.38;10337888;28;20049;-70
2023/12/10 21:52:09;;;;;;;28.80;7.85;;;;;;;8.83;100.00;99792.25;10337563;28;20058;-72
2023/12/10 21:57:09;;;;;;;20.92;9.38;;;;;;;8.82;100.00;99799.50;10335777;28;20076;-71
2023/12/10 22:02:10;;;;;;;26.83;9.07;;;;;;;8.76;100.00;99816.56;10318996;28;20042;-72
2023/12/10 22:07:10;;;;;;;24.17;8.55;;;;;;;8.78;100.00;99805.56;10336865;28;20034;-71
2023/12/10 22:12:11;;;;;;;45.20;12.55;;;;;;;8.92;100.00;99807.16;10337487;28;20122;-72
2023/12/10 22:17:11;;;;;;;37.33;11.27;;;;;;;9.05;100.00;99804.41;10335886;28;20121;-70
2023/12/10 22:22:11;;;;;;;44.97;11.73;;;;;;;9.24;100.00;99801.81;10336356;28;20526;-72
2023/12/10 22:27:12;;;;;;;39.30;10.20;;;;;;;9.40;100.00;99803.19;10335340;28;20133;-70
2023/12/10 22:32:12;;;;;;;49.67;13.85;;;;;;;9.40;100.00;99797.78;10335191;28;20038;-70
2023/12/10 22:37:13;;;;;;;28.40;12.10;;;;;;;9.29;100.00;99799.31;10335695;28;20096;-72
2023/12/10 22:42:13;;;;;;;30.08;10.30;;;;;;;9.22;100.00;99814.72;10334681;28;20042;-70
2023/12/10 22:47:14;;;;;;;45.55;12.45;;;;;;;9.18;100.00;99818.91;10334627;28;20038;-71
2023/12/10 22:52:14;;;;;;;49.47;16.15;;;;;;;9.18;100.00;99819.72;10335712;28;20074;-71